createdAt,value
2022-08-01T00:01:56.034Z,19.04
2022-08-01T00:18:41.378Z,19.35
2022-08-01T00:27:32.414Z,18.37
2022-08-01T00:30:35.048Z,19.25
2022-08-01T00:33:33.346Z,18.61
2022-08-01T00:36:00.498Z,18.84
2022-08-01T00:38:37.799Z,19.04
2022-08-01T00:41:11.836Z,18.25
2022-08-01T00:44:01.541Z,19.27
2022-08-01T00:46:46.373Z,19.01
2022-08-01T00:49:21.473Z,19.06
2022-08-01T00:51:54.354Z,19.24
2022-08-01T00:54:33.016Z,18.88
2022-08-01T00:57:15.041Z,18.34
2022-08-01T00:59:48.887Z,18.19
2022-08-01T01:02:18.487Z,18.22
2022-08-01T01:04:47.404Z,18.57
2022-08-01T01:07:23.755Z,18.54
2022-08-01T01:10:14.730Z,18.66
2022-08-01T01:12:56.044Z,18.86
2022-08-01T01:15:32.346Z,19.10
2022-08-01T01:18:14.811Z,17.79
2022-08-01T01:20:53.384Z,18.27
2022-08-01T01:23:41.320Z,18.99
2022-08-01T01:26:28.138Z,18.43
2022-08-01T01:29:26.765Z,18.35
2022-08-01T01:32:10.889Z,18.66
2022-08-01T01:34:41.734Z,18.73
2022-08-01T01:37:13.680Z,18.38
2022-08-01T01:39:45.270Z,18.75
2022-08-01T01:42:12.178Z,18.89
2022-08-01T01:44:48.548Z,18.98
2022-08-01T01:47:19.160Z,18.59
2022-08-01T01:49:50.084Z,17.95
2022-08-01T01:52:18.178Z,17.92
2022-08-01T01:54:54.389Z,17.83
2022-08-01T01:57:34.968Z,18.91
2022-08-01T02:00:07.760Z,18.53
2022-08-01T02:02:37.118Z,18.86
2022-08-01T02:05:12.324Z,18.38
2022-08-01T02:07:40.820Z,18.74
2022-08-01T02:10:11.203Z,18.77
2022-08-01T02:12:42.073Z,18.75
2022-08-01T02:15:12.424Z,18.68
2022-08-01T02:17:44.528Z,18.68
2022-08-01T02:20:12.898Z,18.69
2022-08-01T02:22:44.750Z,18.63
2022-08-01T02:25:16.533Z,18.62
2022-08-01T02:27:46.887Z,18.66
2022-08-01T02:30:16.977Z,18.63
2022-08-01T02:32:48.528Z,18.49
2022-08-01T02:35:21.368Z,18.58
2022-08-01T02:37:49.654Z,18.46
2022-08-01T02:40:18.886Z,18.30
2022-08-01T02:42:50.288Z,18.59
2022-08-01T02:45:19.535Z,18.44
2022-08-01T02:47:48.886Z,18.38
2022-08-01T02:50:18.333Z,18.46
2022-08-01T02:52:49.369Z,18.39
2022-08-01T02:55:17.933Z,18.44
2022-08-01T02:57:52.350Z,18.42
2022-08-01T03:00:26.772Z,18.27
2022-08-01T03:02:54.601Z,17.88
2022-08-01T03:05:24.146Z,18.20
2022-08-01T03:07:52.607Z,18.28
2022-08-01T03:10:21.696Z,18.41
2022-08-01T03:12:50.989Z,18.40
2022-08-01T03:15:18.980Z,18.42
2022-08-01T03:17:49.514Z,17.74
2022-08-01T03:20:20.609Z,18.13
2022-08-01T03:22:50.257Z,17.64
2022-08-01T03:25:21.101Z,18.11
2022-08-01T03:27:55.311Z,17.34
2022-08-01T03:30:25.173Z,17.58
2022-08-01T03:32:59.178Z,17.69
2022-08-01T03:35:35.706Z,18.35
2022-08-01T03:38:16.283Z,17.57
2022-08-01T03:40:50.406Z,18.33
2022-08-01T03:43:27.478Z,18.16
2022-08-01T03:45:55.097Z,18.33
2022-08-01T03:48:29.906Z,18.32
2022-08-01T03:51:00.237Z,18.20
2022-08-01T03:53:31.811Z,18.22
2022-08-01T03:56:03.111Z,17.91
2022-08-01T03:58:30.661Z,18.19
2022-08-01T04:01:01.162Z,18.25
2022-08-01T04:03:29.814Z,18.21
2022-08-01T04:05:56.628Z,18.27
2022-08-01T04:08:29.919Z,18.28
2022-08-01T04:10:57.055Z,18.24
2022-08-01T04:13:23.942Z,18.09
2022-08-01T04:15:50.624Z,18.18
2022-08-01T04:18:18.347Z,18.17
2022-08-01T04:20:48.866Z,18.10
2022-08-01T04:23:17.404Z,17.96
2022-08-01T04:25:49.239Z,18.02
2022-08-01T04:28:18.345Z,17.96
2022-08-01T04:30:48.889Z,17.73
2022-08-01T04:33:17.345Z,17.97
2022-08-01T04:36:01.477Z,17.86
2022-08-01T04:38:32.944Z,17.93
2022-08-01T04:41:01.028Z,17.75
2022-08-01T04:43:36.774Z,17.84
2022-08-01T04:46:04.292Z,17.90
2022-08-01T04:48:33.108Z,17.94
2022-08-01T04:51:01.670Z,17.87
2022-08-01T04:53:31.265Z,17.88
2022-08-01T04:55:58.294Z,17.86
2022-08-01T04:58:25.306Z,17.83
2022-08-01T05:00:52.081Z,17.68
2022-08-01T05:03:19.448Z,17.70
2022-08-01T05:05:46.136Z,17.87
2022-08-01T05:08:12.891Z,17.75
2022-08-01T05:10:40.983Z,17.77
2022-08-01T05:13:07.746Z,17.73
2022-08-01T05:15:36.030Z,17.83
2022-08-01T05:18:04.678Z,17.82
2022-08-01T05:20:31.442Z,17.82
2022-08-01T05:22:58.371Z,17.76
2022-08-01T05:25:55.975Z,17.74
2022-08-01T05:28:17.173Z,17.51
2022-08-01T05:30:46.044Z,17.66
2022-08-01T05:33:12.749Z,17.58
2022-08-01T05:35:48.135Z,17.76
2022-08-01T05:38:16.361Z,17.66
2022-08-01T05:40:43.253Z,17.68
2022-08-01T05:43:10.051Z,17.71
2022-08-01T05:45:38.448Z,17.80
2022-08-01T05:48:06.158Z,17.77
2022-08-01T05:50:33.923Z,17.69
2022-08-01T05:53:00.636Z,17.93
2022-08-01T05:55:28.716Z,17.88
2022-08-01T05:57:55.481Z,17.85
2022-08-01T06:00:22.508Z,17.90
2022-08-01T06:02:50.923Z,17.90
2022-08-01T06:05:19.236Z,17.83
2022-08-01T06:07:46.564Z,17.73
2022-08-01T06:10:16.225Z,17.93
2022-08-01T06:12:42.982Z,17.96
2022-08-01T06:15:12.224Z,18.02
2022-08-01T06:17:38.973Z,17.96
2022-08-01T06:20:11.850Z,17.97
2022-08-01T06:22:39.010Z,18.11
2022-08-01T06:25:09.193Z,18.17
2022-08-01T06:27:36.117Z,17.94
2022-08-01T06:30:02.966Z,18.23
2022-08-01T06:32:29.872Z,17.98
2022-08-01T06:38:40.550Z,17.67
2022-08-01T06:41:44.043Z,17.23
2022-08-01T06:44:35.869Z,17.43
2022-08-01T06:47:07.390Z,18.11
2022-08-01T06:52:52.203Z,17.69
2022-08-01T07:01:38.693Z,17.40
2022-08-01T07:04:38.020Z,18.49
2022-08-01T07:07:26.770Z,18.56
2022-08-01T07:10:13.963Z,18.55
2022-08-01T07:13:25.330Z,17.60
2022-08-01T07:16:22.560Z,17.47
2022-08-01T07:19:02.615Z,18.35
2022-08-01T07:22:01.453Z,18.13
2022-08-01T07:24:48.237Z,16.94
2022-08-01T07:33:48.528Z,17.87
2022-08-01T07:36:53.677Z,16.93
2022-08-01T07:39:48.318Z,18.08
2022-08-01T07:43:03.468Z,18.08
2022-08-01T07:52:04.438Z,18.14
2022-08-01T07:54:47.044Z,18.08
2022-08-01T08:01:20.354Z,18.13
2022-08-01T08:03:56.710Z,17.73
2022-08-01T08:07:09.672Z,17.17
2022-08-01T08:09:45.972Z,17.32
2022-08-01T08:12:56.998Z,18.41
2022-08-01T08:15:41.953Z,18.35
2022-08-01T08:18:39.077Z,17.47
2022-08-01T08:21:29.595Z,18.25
2022-08-01T08:24:08.064Z,18.00
2022-08-01T08:35:54.162Z,18.92
2022-08-01T08:39:05.361Z,18.17
2022-08-01T08:42:10.340Z,17.90
2022-08-01T08:45:58.833Z,17.96
2022-08-01T08:48:01.737Z,18.85
2022-08-01T08:50:45.176Z,18.31
2022-08-01T08:53:35.476Z,19.18
2022-08-01T08:56:15.701Z,18.11
2022-08-01T08:58:57.991Z,18.14
2022-08-01T09:01:41.805Z,19.05
2022-08-01T09:04:36.272Z,18.74
2022-08-01T09:07:42.216Z,18.31
2022-08-01T09:10:34.051Z,18.60
2022-08-01T09:16:26.448Z,18.87
2022-08-01T09:19:39.666Z,18.96
2022-08-01T09:22:38.916Z,20.00
2022-08-01T09:34:36.659Z,19.80
2022-08-01T09:37:49.542Z,21.03
2022-08-01T09:40:52.499Z,21.34
2022-08-01T09:46:59.305Z,21.89
2022-08-01T09:53:29.697Z,22.23
2022-08-01T10:02:42.117Z,22.38
2022-08-01T10:12:39.323Z,24.24
2022-08-01T10:15:55.301Z,23.95
2022-08-01T10:18:55.573Z,23.23
2022-08-01T10:35:14.833Z,24.47
2022-08-01T11:08:24.561Z,24.62
2022-08-01T11:24:55.165Z,25.83
2022-08-01T11:48:55.752Z,25.32
2022-08-01T12:01:52.845Z,25.68
2022-08-01T12:04:58.621Z,24.71
2022-08-01T12:08:51.783Z,25.90
2022-08-01T12:32:04.584Z,26.62
2022-08-01T12:38:35.795Z,25.76
2022-08-01T12:41:43.325Z,26.67
2022-08-01T12:51:17.833Z,25.99
2022-08-01T12:54:18.565Z,25.76
2022-08-01T12:57:04.940Z,25.89
2022-08-01T13:06:16.458Z,25.89
2022-08-01T13:09:55.203Z,27.19
2022-08-01T13:15:48.369Z,26.56
2022-08-01T13:21:52.640Z,26.52
2022-08-01T13:25:17.681Z,27.51
2022-08-01T13:32:27.702Z,25.65
2022-08-01T13:35:53.285Z,26.57
2022-08-01T13:38:59.846Z,26.13
2022-08-01T13:44:30.157Z,26.30
2022-08-01T13:46:58.197Z,26.90
2022-08-01T13:53:14.912Z,25.69
2022-08-01T14:20:24.630Z,25.47
2022-08-01T14:32:47.107Z,25.95
2022-08-01T14:48:58.577Z,25.98
2022-08-01T14:58:42.707Z,25.88
2022-08-01T15:01:40.624Z,26.64
2022-08-01T15:04:26.380Z,26.87
2022-08-01T15:13:40.450Z,26.88
2022-08-01T15:19:18.870Z,26.27
2022-08-01T15:22:18.561Z,26.65
2022-08-01T15:25:19.929Z,26.43
2022-08-01T15:27:51.809Z,26.49
2022-08-01T15:36:31.228Z,25.36
2022-08-01T15:39:10.747Z,26.13
2022-08-01T15:42:28.430Z,25.52
2022-08-01T15:49:25.938Z,24.98
2022-08-01T15:58:40.250Z,25.01
2022-08-01T16:07:18.569Z,25.00
2022-08-01T16:10:22.415Z,25.14
2022-08-01T16:15:08.338Z,25.82
2022-08-01T16:20:13.035Z,25.66
2022-08-01T16:22:53.302Z,25.63
2022-08-01T16:28:37.456Z,25.79
2022-08-01T16:31:26.721Z,24.81
2022-08-01T16:34:56.350Z,25.49
2022-08-01T16:37:51.981Z,24.76
2022-08-01T16:44:10.709Z,25.38
2022-08-01T16:47:11.732Z,25.34
2022-08-01T16:56:04.117Z,24.27
2022-08-01T16:58:48.682Z,24.81
2022-08-01T17:04:34.511Z,24.59
2022-08-01T17:07:16.304Z,24.23
2022-08-01T17:13:37.879Z,24.04
2022-08-01T17:23:40.941Z,23.11
2022-08-01T17:26:50.281Z,23.00
2022-08-01T17:29:22.500Z,23.02
2022-08-01T17:32:14.618Z,22.75
2022-08-01T17:35:01.596Z,21.78
2022-08-01T17:37:57.619Z,21.84
2022-08-01T18:02:08.744Z,21.02
2022-08-01T18:07:22.270Z,21.02
2022-08-01T18:10:23.480Z,21.30
2022-08-01T18:13:29.978Z,20.45
2022-08-01T18:16:16.283Z,21.07
2022-08-01T18:19:10.074Z,21.04
2022-08-01T18:28:16.311Z,20.05
2022-08-01T18:30:35.329Z,20.86
2022-08-01T18:33:28.659Z,20.83
2022-08-01T18:36:31.624Z,20.27
2022-08-01T18:41:58.205Z,20.17
2022-08-01T18:44:48.738Z,20.51
2022-08-01T18:47:31.361Z,19.37
2022-08-01T18:50:26.234Z,19.92
2022-08-01T18:53:09.040Z,19.17
2022-08-01T18:55:57.462Z,19.55
2022-08-01T18:58:42.396Z,19.11
2022-08-01T19:01:27.327Z,19.46
2022-08-01T19:04:13.879Z,19.79
2022-08-01T19:18:34.037Z,19.64
2022-08-01T19:21:08.430Z,18.62
2022-08-01T19:23:42.200Z,19.19
2022-08-01T19:26:22.422Z,18.68
2022-08-01T19:28:59.810Z,18.80
2022-08-01T19:31:36.782Z,19.19
2022-08-01T19:34:13.963Z,18.78
2022-08-01T19:40:26.948Z,19.07
2022-08-01T19:43:12.683Z,18.69
2022-08-01T19:46:03.665Z,18.13
2022-08-01T19:48:51.480Z,18.85
2022-08-01T19:52:10.610Z,17.94
2022-08-01T19:54:47.186Z,18.77
2022-08-01T19:57:26.912Z,18.32
2022-08-01T20:00:39.211Z,18.87
2022-08-01T20:03:20.647Z,18.61
2022-08-01T20:05:57.082Z,18.75
2022-08-01T20:08:42.756Z,18.76
2022-08-01T20:11:47.492Z,17.61
2022-08-01T20:14:27.116Z,17.72
2022-08-01T20:20:12.253Z,18.19
2022-08-01T20:23:01.303Z,18.39
2022-08-01T20:26:02.920Z,18.13
2022-08-01T20:35:51.124Z,17.36
2022-08-01T20:38:50.125Z,17.52
2022-08-01T20:41:45.989Z,17.73
2022-08-01T20:47:38.645Z,16.49
2022-08-01T20:50:26.975Z,17.31
2022-08-01T20:53:17.046Z,16.33
2022-08-01T20:56:10.912Z,17.42
2022-08-01T21:01:48.091Z,17.23
2022-08-01T21:04:47.172Z,16.26
2022-08-01T21:07:31.016Z,17.07
2022-08-01T21:13:41.816Z,16.96
2022-08-01T21:16:25.182Z,15.86
2022-08-01T21:19:19.597Z,15.68
2022-08-01T21:22:01.610Z,16.77
2022-08-01T21:24:38.403Z,16.29
2022-08-01T21:27:19.328Z,16.72
2022-08-01T21:29:56.123Z,16.43
2022-08-01T21:32:31.794Z,16.44
2022-08-01T21:35:16.671Z,15.57
2022-08-01T21:37:56.051Z,16.40
2022-08-01T21:40:35.600Z,15.35
2022-08-01T21:43:19.624Z,16.46
2022-08-01T21:46:01.193Z,16.12
2022-08-01T21:48:33.972Z,16.27
2022-08-01T21:51:14.991Z,15.14
2022-08-01T21:53:50.348Z,15.34
2022-08-01T21:56:36.592Z,14.96
2022-08-01T21:59:20.984Z,15.84
2022-08-01T22:05:04.031Z,16.02
2022-08-01T22:07:39.324Z,15.71
2022-08-01T22:10:15.700Z,15.54
2022-08-01T22:12:48.572Z,15.49
2022-08-01T22:15:24.251Z,15.52
2022-08-01T22:18:12.900Z,14.86
2022-08-01T22:20:49.248Z,15.71
2022-08-01T22:23:36.666Z,15.43
2022-08-01T22:26:15.933Z,14.65
2022-08-01T22:28:53.934Z,15.23
2022-08-01T22:31:22.471Z,14.52
2022-08-01T22:33:53.263Z,15.67
2022-08-01T22:36:28.830Z,14.49
2022-08-01T22:38:59.346Z,14.66
2022-08-01T22:42:01.863Z,15.33
2022-08-01T22:44:32.509Z,15.01
2022-08-01T22:47:14.543Z,14.45
2022-08-01T22:50:03.769Z,15.49
2022-08-01T22:52:51.410Z,15.48
2022-08-01T22:55:25.045Z,15.42
2022-08-01T22:58:23.042Z,14.23
2022-08-01T23:01:20.943Z,14.93
2022-08-01T23:04:03.038Z,14.19
2022-08-01T23:06:43.920Z,14.15
2022-08-01T23:09:15.547Z,14.06
2022-08-01T23:11:46.303Z,14.52
2022-08-01T23:14:22.224Z,14.11
2022-08-01T23:16:53.324Z,14.65
2022-08-01T23:19:24.843Z,14.53
2022-08-01T23:22:05.676Z,15.16
2022-08-01T23:24:39.895Z,13.92
2022-08-01T23:27:55.798Z,13.93
2022-08-01T23:30:28.796Z,15.01
2022-08-01T23:32:56.401Z,13.78
2022-08-01T23:35:39.077Z,14.06
2022-08-01T23:38:11.684Z,14.28
2022-08-01T23:40:40.743Z,14.55
2022-08-01T23:43:16.131Z,14.89
2022-08-01T23:46:03.572Z,13.76
2022-08-01T23:48:40.658Z,14.02
2022-08-01T23:51:24.035Z,14.90
2022-08-01T23:54:01.196Z,13.88
2022-08-01T23:56:29.642Z,13.71
2022-08-01T23:59:06.081Z,14.89
